Time;durP1;ratioP1;P1;durP2;ratioP2;P2;SDS_P1;SDS_P2;PMS_P1;PMS_P2;Temp;Humidity;BMP_temperature;BMP_pressure;BME280_temperature;BME280_humidity;BME280_pressure;Samples;Min_cycle;Max_cycle;Signal;HPM_P1;HPM_P2
2021/09/27 00:00:12;;;;;;;17.52;15.73;;;18.60;92.80;;;;;;6158589;23;20019;-85
2021/09/27 00:02:37;;;;;;;17.50;15.00;;;18.60;92.70;;;;;;6159523;23;20036;-85
2021/09/27 00:05:09;;;;;;;17.20;15.50;;;18.60;92.80;;;;;;6159828;23;20017;-85
2021/09/27 00:07:34;;;;;;;16.88;15.18;;;18.60;92.80;;;;;;6158711;23;20032;-85
2021/09/27 00:10:00;;;;;;;17.00;15.20;;;18.60;92.80;;;;;;6159927;23;20013;-85
2021/09/27 00:12:26;;;;;;;15.77;14.13;;;18.50;92.60;;;;;;6159264;23;20024;-85
2021/09/27 00:14:51;;;;;;;16.33;14.73;;;18.50;92.50;;;;;;6158693;23;20013;-86
2021/09/27 00:17:17;;;;;;;16.67;14.90;;;18.40;92.50;;;;;;6159905;23;20009;-86
2021/09/27 00:19:43;;;;;;;15.85;14.25;;;18.40;92.60;;;;;;6158972;23;20330;-85
2021/09/27 00:22:09;;;;;;;15.98;14.20;;;18.30;92.80;;;;;;6158537;23;20040;-85
2021/09/27 00:24:35;;;;;;;15.52;14.02;;;18.30;92.90;;;;;;6159079;23;20104;-84
2021/09/27 00:27:01;;;;;;;16.67;14.68;;;18.30;92.90;;;;;;6159230;23;20021;-85
2021/09/27 00:29:27;;;;;;;15.98;14.38;;;18.30;93.00;;;;;;6158668;23;20385;-84
2021/09/27 00:31:53;;;;;;;16.50;14.80;;;18.20;92.90;;;;;;6159928;23;20100;-84
2021/09/27 00:34:18;;;;;;;18.55;13.48;;;18.20;93.00;;;;;;6159505;23;20071;-84
2021/09/27 00:36:44;;;;;;;15.30;13.63;;;18.20;93.10;;;;;;6157877;23;20551;-84
2021/09/27 00:39:09;;;;;;;15.48;13.77;;;18.10;93.10;;;;;;6158861;23;20020;-84
2021/09/27 00:41:36;;;;;;;16.13;14.57;;;18.10;93.10;;;;;;6159176;23;20025;-85
2021/09/27 00:44:03;;;;;;;16.45;14.02;;;18.10;93.10;;;;;;6158397;23;20024;-85
2021/09/27 00:46:29;;;;;;;17.45;14.18;;;18.10;93.20;;;;;;6159295;23;20353;-85
2021/09/27 00:48:56;;;;;;;16.00;13.32;;;18.10;93.20;;;;;;6159743;23;20013;-84
2021/09/27 00:51:39;;;;;;;14.73;13.10;;;18.10;93.20;;;;;;6158886;23;20013;-85
2021/09/27 00:54:20;;;;;;;14.93;13.35;;;18.00;93.30;;;;;;6159426;23;20017;-85
2021/09/27 00:56:55;;;;;;;16.17;13.43;;;18.00;93.10;;;;;;6158058;23;20088;-84
2021/09/27 00:59:24;;;;;;;15.68;13.55;;;17.90;93.00;;;;;;6159436;23;20323;-85
2021/09/27 01:01:51;;;;;;;14.18;12.68;;;17.90;93.10;;;;;;6159360;23;20017;-84
2021/09/27 01:04:17;;;;;;;15.70;13.80;;;17.90;93.20;;;;;;6158284;23;20342;-84
2021/09/27 01:07:15;;;;;;;15.15;13.13;;;17.90;93.20;;;;;;6158949;23;20028;-84
2021/09/27 01:09:59;;;;;;;14.90;13.30;;;17.80;93.00;;;;;;6158633;23;20787;-84
2021/09/27 01:12:55;;;;;;;14.52;13.02;;;17.80;93.20;;;;;;6158593;23;20319;-85
2021/09/27 01:15:54;;;;;;;13.77;12.23;;;17.80;93.10;;;;;;6159250;23;20013;-84
2021/09/27 01:18:32;;;;;;;14.35;12.85;;;17.70;93.20;;;;;;6158128;23;20092;-84
2021/09/27 01:21:28;;;;;;;15.50;13.88;;;17.70;93.40;;;;;;6159084;23;20020;-85
2021/09/27 01:24:12;;;;;;;14.85;13.25;;;17.70;93.20;;;;;;6159351;23;20031;-85
2021/09/27 01:26:52;;;;;;;15.98;12.50;;;17.60;93.20;;;;;;6157738;23;20057;-85
2021/09/27 01:29:31;;;;;;;14.48;12.98;;;17.60;93.50;;;;;;6185435;23;20453;-85
2021/09/27 01:32:23;;;;;;;14.18;12.60;;;17.60;93.50;;;;;;6158793;23;20016;-84
2021/09/27 01:35:06;;;;;;;14.05;11.90;;;17.60;93.30;;;;;;6158800;23;20028;-84
2021/09/27 01:37:35;;;;;;;13.40;11.77;;;17.50;93.40;;;;;;6159200;23;20104;-84
2021/09/27 01:40:09;;;;;;;13.90;12.40;;;17.50;93.30;;;;;;6158259;23;20049;-85
2021/09/27 01:42:51;;;;;;;13.23;11.82;;;17.50;93.30;;;;;;6159052;23;20044;-84
2021/09/27 01:45:54;;;;;;;15.93;13.00;;;17.50;93.30;;;;;;6159124;23;20040;-85
2021/09/27 01:48:30;;;;;;;12.57;11.27;;;17.40;92.90;;;;;;6159244;23;20025;-84
2021/09/27 01:51:00;;;;;;;14.50;12.40;;;17.40;93.30;;;;;;6159148;23;20013;-85
2021/09/27 01:54:06;;;;;;;15.00;11.85;;;17.40;93.80;;;;;;6157743;23;20013;-84
2021/09/27 01:57:05;;;;;;;13.10;11.75;;;17.30;93.20;;;;;;6158881;23;20020;-85
2021/09/27 01:59:42;;;;;;;13.75;12.00;;;17.30;93.50;;;;;;6140672;23;20017;-84
2021/09/27 02:02:22;;;;;;;12.52;11.10;;;17.30;93.50;;;;;;6160571;23;20040;-84
2021/09/27 02:05:05;;;;;;;13.65;12.18;;;17.30;93.50;;;;;;6160515;23;20028;-84
2021/09/27 02:07:37;;;;;;;14.82;11.75;;;17.30;93.70;;;;;;6158871;23;20013;-85
2021/09/27 02:10:25;;;;;;;13.38;11.80;;;17.20;93.70;;;;;;6161314;23;20017;-85
2021/09/27 02:12:59;;;;;;;13.05;11.73;;;17.20;93.40;;;;;;6160989;23;20431;-84
2021/09/27 02:15:42;;;;;;;14.10;10.88;;;17.20;93.80;;;;;;6159355;23;20401;-84
2021/09/27 02:18:11;;;;;;;12.35;11.02;;;17.20;93.80;;;;;;6160850;23;20040;-84
2021/09/27 02:20:48;;;;;;;14.57;11.90;;;17.10;93.90;;;;;;6160684;23;20031;-84
2021/09/27 03:28:08;;;;;;;18.20;15.75;;;16.50;93.50;;;;;;6183574;23;20032;-83
2021/09/27 03:31:11;;;;;;;18.45;14.10;;;16.50;93.90;;;;;;6159997;23;20016;-83
2021/09/27 03:33:59;;;;;;;18.00;15.98;;;16.50;93.80;;;;;;6159676;23;20457;-84
2021/09/27 03:36:43;;;;;;;15.13;12.82;;;16.50;94.10;;;;;;6159006;23;20388;-84
2021/09/27 03:39:22;;;;;;;18.65;15.05;;;16.40;94.00;;;;;;6159329;23;20013;-84
2021/09/27 03:41:51;;;;;;;18.35;13.90;;;16.40;94.10;;;;;;6160158;23;20028;-84
2021/09/27 03:44:26;;;;;;;16.05;14.32;;;16.50;94.20;;;;;;6159495;23;20013;-84
2021/09/27 03:47:13;;;;;;;22.58;16.02;;;16.40;94.20;;;;;;6159093;23;20401;-84
2021/09/27 03:49:55;;;;;;;17.85;14.35;;;16.40;94.20;;;;;;6159885;23;20048;-84
2021/09/27 03:52:44;;;;;;;14.40;12.38;;;16.40;94.40;;;;;;6159271;23;20093;-84
2021/09/27 03:55:18;;;;;;;15.05;12.98;;;16.30;94.30;;;;;;6186688;23;20091;-84
2021/09/27 03:57:54;;;;;;;20.23;14.30;;;16.40;94.30;;;;;;6159495;23;20029;-83
2021/09/27 04:00:34;;;;;;;19.35;15.93;;;16.30;94.30;;;;;;6158962;23;20025;-83
2021/09/27 04:03:39;;;;;;;20.85;16.00;;;16.30;94.50;;;;;;6159523;23;20100;-85
2021/09/27 04:06:42;;;;;;;20.75;16.52;;;16.30;94.50;;;;;;6153052;23;20401;-85
2021/09/27 04:09:39;;;;;;;20.50;16.58;;;16.20;94.70;;;;;;6159731;23;20103;-86
2021/09/27 04:12:15;;;;;;;17.75;15.57;;;16.20;94.80;;;;;;6186490;23;20020;-86
2021/09/27 04:14:56;;;;;;;18.42;14.57;;;16.20;94.90;;;;;;6184947;23;20017;-86
2021/09/27 04:17:39;;;;;;;19.00;16.00;;;16.20;94.90;;;;;;6159852;23;20027;-85
2021/09/27 04:20:39;;;;;;;21.27;16.20;;;16.10;95.20;;;;;;6159517;23;20023;-85
2021/09/27 04:23:32;;;;;;;17.25;14.63;;;16.10;94.90;;;;;;6110663;23;20029;-84
2021/09/27 04:26:06;;;;;;;20.90;17.05;;;16.10;94.80;;;;;;6159967;23;20020;-85
2021/09/27 04:28:56;;;;;;;24.20;17.92;;;16.10;95.10;;;;;;6184994;23;20016;-85
2021/09/27 04:31:32;;;;;;;18.60;15.02;;;16.10;95.20;;;;;;6186132;23;20017;-85
2021/09/27 04:34:17;;;;;;;16.65;14.05;;;16.10;95.10;;;;;;6159780;23;20079;-85
2021/09/27 04:36:45;;;;;;;22.75;16.83;;;16.00;95.10;;;;;;6159413;23;20028;-85
2021/09/27 04:39:19;;;;;;;17.67;14.27;;;16.00;95.20;;;;;;6159703;23;20020;-85
2021/09/27 04:41:44;;;;;;;17.88;14.80;;;16.00;95.10;;;;;;6158499;23;20021;-86
2021/09/27 04:44:45;;;;;;;21.10;17.83;;;16.00;95.10;;;;;;6185946;23;20100;-86
2021/09/27 04:47:31;;;;;;;17.55;14.75;;;16.00;95.10;;;;;;6185314;23;20020;-85
2021/09/27 04:50:10;;;;;;;20.40;18.15;;;16.00;95.30;;;;;;6158558;23;20059;-85
2021/09/27 04:52:54;;;;;;;18.50;16.20;;;16.00;95.30;;;;;;6159142;23;20048;-85
2021/09/27 04:55:47;;;;;;;21.25;17.70;;;16.00;95.30;;;;;;6159409;23;20071;-86
2021/09/27 04:58:36;;;;;;;20.13;15.52;;;16.00;95.30;;;;;;6159797;23;20508;-85
2021/09/27 05:01:13;;;;;;;22.58;18.38;;;15.90;95.00;;;;;;6159025;23;20457;-84
2021/09/27 05:04:00;;;;;;;20.27;16.75;;;15.90;95.30;;;;;;6158640;23;20013;-85
2021/09/27 05:07:03;;;;;;;20.95;17.15;;;15.90;95.40;;;;;;6158399;23;20445;-85
2021/09/27 05:09:34;;;;;;;16.70;14.68;;;15.90;95.20;;;;;;6158272;23;20024;-85
2021/09/27 05:12:00;;;;;;;21.20;18.10;;;15.90;95.30;;;;;;6159635;23;20013;-86
2021/09/27 05:14:51;;;;;;;22.50;17.20;;;15.90;95.30;;;;;;6158797;23;20523;-85
2021/09/27 05:17:37;;;;;;;18.27;14.27;;;15.90;95.60;;;;;;6158517;23;20024;-85
2021/09/27 05:20:15;;;;;;;19.73;16.48;;;15.90;95.10;;;;;;6158958;23;20391;-85
2021/09/27 05:23:06;;;;;;;18.60;15.82;;;15.80;95.30;;;;;;6159426;23;20017;-85
2021/09/27 05:25:45;;;;;;;21.67;15.68;;;15.80;95.10;;;;;;6171492;23;20036;-84
2021/09/27 05:28:31;;;;;;;18.98;15.60;;;15.80;95.30;;;;;;6144516;23;20094;-85
2021/09/27 05:31:20;;;;;;;18.10;15.95;;;15.80;95.20;;;;;;6158256;23;20024;-84
2021/09/27 05:33:53;;;;;;;17.08;14.60;;;15.80;95.30;;;;;;6159955;23;20013;-85
2021/09/27 05:36:49;;;;;;;20.90;17.42;;;15.80;95.20;;;;;;6160161;23;20017;-84
2021/09/27 05:39:52;;;;;;;17.33;14.13;;;15.80;95.10;;;;;;6158774;23;20020;-85
2021/09/27 05:42:45;;;;;;;16.05;14.32;;;15.70;94.70;;;;;;6160576;23;20081;-84
2021/09/27 05:45:25;;;;;;;24.40;18.73;;;15.70;95.00;;;;;;6158795;23;20024;-84
2021/09/27 05:47:58;;;;;;;19.20;15.32;;;15.70;95.30;;;;;;6161010;23;20032;-86
2021/09/27 05:50:40;;;;;;;19.05;15.98;;;15.70;95.30;;;;;;6160771;23;20021;-85
2021/09/27 05:53:35;;;;;;;22.75;18.67;;;15.70;95.20;;;;;;6160030;23;20109;-85
2021/09/27 05:56:43;;;;;;;18.98;16.50;;;15.70;95.60;;;;;;6142596;23;20017;-82
2021/09/27 05:59:22;;;;;;;21.70;17.33;;;15.70;95.50;;;;;;6139906;23;20024;-83
2021/09/27 06:02:08;;;;;;;23.65;19.23;;;15.70;95.70;;;;;;6160401;23;20017;-83
2021/09/27 06:04:52;;;;;;;24.90;19.65;;;15.80;96.00;;;;;;6160867;23;20045;-83
2021/09/27 06:07:42;;;;;;;25.40;20.17;;;15.80;96.20;;;;;;6159525;23;20476;-83
2021/09/27 06:10:33;;;;;;;25.30;18.60;;;15.80;96.30;;;;;;6160867;23;20017;-87
2021/09/27 06:13:05;;;;;;;24.73;19.90;;;15.80;96.20;;;;;;6160131;23;20005;-88
2021/09/27 06:15:51;;;;;;;21.33;16.98;;;15.80;96.30;;;;;;6160795;23;20462;-87
2021/09/27 06:18:31;;;;;;;27.48;21.75;;;15.80;96.20;;;;;;6160610;23;20028;-88
2021/09/27 06:21:00;;;;;;;29.23;21.73;;;15.90;96.40;;;;;;6159972;23;20457;-81
2021/09/27 06:23:51;;;;;;;25.80;19.98;;;15.80;96.50;;;;;;6160463;23;20354;-80
2021/09/27 06:26:19;;;;;;;27.30;20.13;;;15.90;96.40;;;;;;6160827;23;20048;-80
2021/09/27 06:28:55;;;;;;;21.27;16.98;;;15.80;96.40;;;;;;6154577;23;20590;-80
2021/09/27 06:31:29;;;;;;;25.00;19.50;;;15.90;96.20;;;;;;6158894;23;20333;-80
2021/09/27 06:34:04;;;;;;;29.75;22.45;;;15.90;96.20;;;;;;6157379;23;20013;-80
2021/09/27 06:36:32;;;;;;;29.83;22.15;;;15.90;96.50;;;;;;6185647;23;20028;-81
2021/09/27 06:39:02;;;;;;;29.13;21.45;;;15.90;96.70;;;;;;6186327;23;20031;-80
2021/09/27 06:41:32;;;;;;;26.58;21.30;;;15.90;96.70;;;;;;6158057;23;20390;-81
2021/09/27 06:43:57;;;;;;;25.90;20.77;;;16.00;96.70;;;;;;6159790;23;20370;-80
2021/09/27 06:46:23;;;;;;;32.45;24.02;;;16.00;96.70;;;;;;6159717;23;20152;-80
2021/09/27 06:48:50;;;;;;;28.10;22.10;;;16.00;96.80;;;;;;6159028;23;20021;-81
2021/09/27 06:51:16;;;;;;;32.38;23.52;;;16.00;96.80;;;;;;6159826;23;20160;-81
2021/09/27 06:53:42;;;;;;;31.63;23.50;;;16.00;96.90;;;;;;6159336;23;20017;-81
2021/09/27 06:56:08;;;;;;;30.38;23.52;;;16.10;96.90;;;;;;6158846;23;20017;-81
2021/09/27 06:58:34;;;;;;;31.75;23.75;;;16.10;96.90;;;;;;6159724;23;20029;-81
2021/09/27 07:00:59;;;;;;;24.88;19.67;;;16.10;97.00;;;;;;6159587;23;20076;-81
2021/09/27 07:03:25;;;;;;;30.45;22.40;;;16.10;96.80;;;;;;6158577;23;20024;-81
2021/09/27 07:05:51;;;;;;;35.47;25.10;;;16.10;96.80;;;;;;6159390;23;20075;-81
2021/09/27 07:08:19;;;;;;;41.42;27.38;;;16.10;96.80;;;;;;6159342;23;20017;-81
2021/09/27 07:10:47;;;;;;;36.65;23.35;;;16.10;97.00;;;;;;6158616;23;20024;-82
2021/09/27 07:13:14;;;;;;;39.88;26.60;;;16.10;97.00;;;;;;6159010;23;20039;-81
2021/09/27 07:15:41;;;;;;;41.45;27.83;;;16.20;97.10;;;;;;6158958;23;20013;-81
2021/09/27 07:18:06;;;;;;;36.95;25.85;;;16.20;97.10;;;;;;6185252;23;20028;-81
2021/09/27 07:20:32;;;;;;;38.47;25.88;;;16.20;97.10;;;;;;6159224;23;20009;-81
2021/09/27 07:22:58;;;;;;;29.85;20.85;;;16.20;97.20;;;;;;6159661;23;20139;-81
2021/09/27 07:25:28;;;;;;;28.65;20.08;;;16.20;96.90;;;;;;6155318;23;20017;-81
2021/09/27 07:27:55;;;;;;;34.95;24.38;;;16.20;96.70;;;;;;6159112;23;20029;-81
2021/09/27 07:30:21;;;;;;;34.35;24.17;;;16.20;96.90;;;;;;6158621;23;20012;-81
2021/09/27 07:32:47;;;;;;;28.45;23.08;;;16.30;97.00;;;;;;6158699;23;20017;-81
2021/09/27 07:35:17;;;;;;;33.67;22.52;;;16.30;97.00;;;;;;6159380;23;20024;-82
2021/09/27 07:37:43;;;;;;;31.92;23.42;;;16.30;97.10;;;;;;6158150;23;20385;-82
2021/09/27 07:40:15;;;;;;;33.85;24.27;;;16.30;97.10;;;;;;6159394;23;20338;-81
2021/09/27 07:42:41;;;;;;;33.13;24.37;;;16.30;97.20;;;;;;6159144;23;20021;-82
2021/09/27 07:45:11;;;;;;;28.73;20.67;;;16.40;97.20;;;;;;6158439;23;20023;-81
2021/09/27 07:47:36;;;;;;;30.33;23.30;;;16.40;97.10;;;;;;6157870;23;20504;-81
2021/09/27 07:50:04;;;;;;;28.38;22.58;;;16.40;97.20;;;;;;6159296;23;20021;-81
2021/09/27 07:52:29;;;;;;;26.67;19.83;;;16.40;97.20;;;;;;6158307;23;20009;-81
2021/09/27 07:54:55;;;;;;;29.13;23.10;;;16.40;97.10;;;;;;6158441;23;20450;-82
2021/09/27 07:57:20;;;;;;;23.75;20.15;;;16.40;97.40;;;;;;6159020;23;20013;-81
2021/09/27 07:59:47;;;;;;;29.17;22.30;;;16.40;97.10;;;;;;6157905;23;20013;-81
2021/09/27 08:02:18;;;;;;;28.77;21.98;;;16.50;97.10;;;;;;6158896;23;20017;-81
2021/09/27 08:04:43;;;;;;;29.95;22.02;;;16.50;97.30;;;;;;6151812;23;20048;-81
2021/09/27 08:07:09;;;;;;;33.70;23.80;;;16.50;97.30;;;;;;6157825;23;20017;-82
2021/09/27 08:09:35;;;;;;;27.45;22.80;;;16.60;97.50;;;;;;6158638;23;20021;-81
2021/09/27 08:12:03;;;;;;;29.55;22.42;;;16.60;97.60;;;;;;6159406;23;20349;-83
2021/09/27 08:14:29;;;;;;;27.48;22.50;;;16.60;97.60;;;;;;6154888;23;20017;-83
2021/09/27 08:16:54;;;;;;;27.02;21.80;;;16.70;97.60;;;;;;6157077;23;20067;-83
2021/09/27 08:19:24;;;;;;;27.33;21.20;;;16.70;97.60;;;;;;6158142;23;20013;-83
2021/09/27 08:21:51;;;;;;;26.83;20.80;;;16.80;98.00;;;;;;6159068;23;20028;-83
2021/09/27 08:24:16;;;;;;;31.17;22.95;;;16.80;97.60;;;;;;6158631;23;20012;-83
2021/09/27 08:26:45;;;;;;;26.60;20.60;;;16.90;97.70;;;;;;6156486;23;20110;-83
2021/09/27 08:29:11;;;;;;;24.98;21.25;;;16.90;97.60;;;;;;6158525;23;20021;-82
2021/09/27 08:31:37;;;;;;;27.30;21.15;;;17.00;97.60;;;;;;6157907;23;20472;-83
2021/09/27 08:34:03;;;;;;;24.95;20.95;;;17.00;97.60;;;;;;6158376;23;20078;-83
2021/09/27 08:36:29;;;;;;;26.92;20.98;;;17.00;97.40;;;;;;6158301;23;20446;-84
2021/09/27 08:38:55;;;;;;;23.63;20.52;;;17.10;97.40;;;;;;6157959;23;20119;-83
2021/09/27 08:41:28;;;;;;;25.20;21.10;;;17.10;97.30;;;;;;6158269;23;20338;-83
2021/09/27 08:44:13;;;;;;;21.90;18.98;;;17.20;97.40;;;;;;6159119;23;20013;-82
2021/09/27 08:46:48;;;;;;;28.65;21.70;;;17.20;97.30;;;;;;6158536;23;20017;-82
2021/09/27 08:49:23;;;;;;;25.25;20.42;;;17.30;97.50;;;;;;6158067;23;20067;-82
2021/09/27 08:51:49;;;;;;;23.33;19.58;;;17.30;97.50;;;;;;6151573;23;20023;-82
2021/09/27 08:54:21;;;;;;;22.83;20.00;;;17.40;97.40;;;;;;6154255;23;20016;-83
2021/09/27 08:57:09;;;;;;;24.30;18.95;;;17.50;97.40;;;;;;6157244;23;20076;-83
2021/09/27 09:00:03;;;;;;;25.30;18.52;;;17.60;97.30;;;;;;6158219;23;20021;-83
2021/09/27 09:02:44;;;;;;;22.95;18.95;;;17.60;97.10;;;;;;6157185;23;20017;-83
2021/09/27 09:05:40;;;;;;;20.35;17.02;;;17.70;97.00;;;;;;6158409;23;20017;-83
2021/09/27 09:08:30;;;;;;;21.27;16.95;;;17.80;96.90;;;;;;6159061;23;20024;-83
2021/09/27 09:11:06;;;;;;;20.52;17.27;;;17.80;96.80;;;;;;6157823;23;20671;-83
2021/09/27 09:13:43;;;;;;;20.55;16.65;;;17.80;96.70;;;;;;6157797;23;20013;-83
2021/09/27 09:16:13;;;;;;;19.50;17.00;;;17.90;96.50;;;;;;6157156;23;20389;-82
2021/09/27 09:18:46;;;;;;;21.55;16.75;;;18.00;96.70;;;;;;6158251;23;20087;-83
2021/09/27 09:21:19;;;;;;;19.73;16.08;;;18.10;96.70;;;;;;6159141;23;20502;-83
2021/09/27 09:23:54;;;;;;;20.98;16.58;;;18.10;96.60;;;;;;6156744;23;20888;-83
2021/09/27 09:26:30;;;;;;;20.65;16.08;;;18.20;96.40;;;;;;6159087;23;20017;-83
2021/09/27 09:28:56;;;;;;;18.70;15.20;;;18.30;96.10;;;;;;6158158;23;20343;-84
2021/09/27 09:31:33;;;;;;;20.25;15.73;;;18.30;95.80;;;;;;6157228;23;20070;-84
2021/09/27 09:34:04;;;;;;;20.25;15.93;;;18.40;95.80;;;;;;6158464;23;20096;-85
2021/09/27 09:36:33;;;;;;;20.17;15.35;;;18.40;95.70;;;;;;6157633;23;20096;-84
2021/09/27 09:39:09;;;;;;;19.52;15.63;;;18.50;95.70;;;;;;6157005;23;20017;-84
2021/09/27 09:41:43;;;;;;;22.25;15.77;;;18.50;95.60;;;;;;6157729;23;20021;-83
2021/09/27 09:44:26;;;;;;;17.23;14.57;;;18.60;95.60;;;;;;6132398;23;20017;-83
2021/09/27 09:47:08;;;;;;;18.08;14.30;;;18.70;95.50;;;;;;6157482;23;20017;-83
2021/09/27 09:49:52;;;;;;;17.92;14.13;;;18.80;95.40;;;;;;6158358;23;20108;-83
2021/09/27 09:52:25;;;;;;;16.95;14.35;;;18.80;95.20;;;;;;6156920;23;20349;-83
2021/09/27 09:54:52;;;;;;;;;;;18.90;95.10;;;;;;6158942;23;20437;-83
2021/09/27 09:57:37;;;;;;;17.63;13.82;;;18.90;94.90;;;;;;6158274;23;19987;-84
2021/09/27 10:00:19;;;;;;;17.35;13.13;;;19.00;94.90;;;;;;6157508;23;20434;-84
2021/09/27 10:02:50;;;;;;;16.52;13.23;;;19.10;94.80;;;;;;6157475;23;20438;-86
2021/09/27 10:05:22;;;;;;;18.65;12.40;;;19.10;94.50;;;;;;6156854;23;20446;-86
2021/09/27 10:07:50;;;;;;;15.97;12.53;;;19.20;94.40;;;;;;6157441;23;20513;-86
2021/09/27 10:10:33;;;;;;;15.15;12.20;;;19.20;94.20;;;;;;6157663;23;20245;-85
2021/09/27 10:13:04;;;;;;;14.85;11.98;;;19.30;94.10;;;;;;6156580;23;20014;-88
2021/09/27 10:15:42;;;;;;;15.05;12.20;;;19.30;94.00;;;;;;6156611;23;20015;-87
2021/09/27 10:18:35;;;;;;;14.48;11.88;;;19.30;93.90;;;;;;6160096;23;20021;-92
2021/09/27 10:21:15;;;;;;;17.00;11.90;;;19.40;94.20;;;;;;6159463;23;20013;-91
2021/09/27 10:23:48;;;;;;;16.33;11.73;;;19.40;93.90;;;;;;6159810;23;20755;-91
2021/09/27 10:26:25;;;;;;;15.65;11.38;;;19.50;94.00;;;;;;6157820;23;20017;-90
2021/09/27 11:04:55;;;;;;;11.48;8.05;;;20.30;91.80;;;;;;6154882;23;20510;-89
2021/09/27 11:07:43;;;;;;;12.13;7.63;;;20.30;91.40;;;;;;6121374;23;20017;-87
2021/09/27 11:10:38;;;;;;;12.93;7.70;;;20.40;91.60;;;;;;6153703;23;20245;-88
2021/09/27 11:13:06;;;;;;;10.57;7.60;;;20.40;91.20;;;;;;6154891;23;20044;-88
2021/09/27 11:16:14;;;;;;;11.32;7.90;;;20.50;91.30;;;;;;6152725;23;20075;-89
2021/09/27 11:19:04;;;;;;;11.90;7.70;;;20.50;91.20;;;;;;6153153;23;20458;-85
2021/09/27 11:26:18;;;;;;;9.38;7.22;;;20.60;91.10;;;;;;6155472;23;20016;-87
2021/09/27 11:59:48;;;;;;;10.77;6.13;;;21.00;90.40;;;;;;6182229;23;20052;-90
2021/09/27 12:35:05;;;;;;;12.02;6.82;;;21.00;90.20;;;;;;4779371;29;1210556;-91
2021/09/27 12:37:38;;;;;;;10.68;6.22;;;21.10;90.10;;;;;;4813381;29;20051;-88
2021/09/27 12:40:07;;;;;;;;;;;21.00;89.40;;;;;;4805024;29;20553;-88
2021/09/27 12:42:49;;;;;;;10.57;6.20;;;21.00;89.20;;;;;;4816414;29;20332;-90
2021/09/27 12:45:28;;;;;;;11.20;6.75;;;21.00;90.30;;;;;;4805146;29;20050;-88
2021/09/27 12:47:57;;;;;;;11.63;6.60;;;21.00;90.40;;;;;;4817115;29;20055;-90
2021/09/27 12:50:26;;;;;;;12.02;6.47;;;21.00;90.30;;;;;;4811683;29;20215;-88
2021/09/27 12:52:59;;;;;;;8.52;6.00;;;21.00;90.30;;;;;;4816901;29;20046;-88
2021/09/27 12:55:43;;;;;;;10.40;5.60;;;21.10;89.70;;;;;;4817675;29;20090;-89
2021/09/27 12:58:34;;;;;;;12.48;6.20;;;21.00;89.40;;;;;;4818751;29;20046;-91
2021/09/27 13:01:03;;;;;;;9.57;6.03;;;21.00;89.20;;;;;;4817366;29;20042;-90
2021/09/27 13:03:31;;;;;;;8.13;5.30;;;21.00;90.00;;;;;;4813187;29;20133;-89
2021/09/27 13:06:12;;;;;;;8.07;5.40;;;21.00;89.70;;;;;;4829883;29;20104;-89
2021/09/27 13:08:47;;;;;;;9.85;5.30;;;21.00;89.60;;;;;;4813106;29;20483;-87
2021/09/27 13:11:34;;;;;;;10.43;5.57;;;21.00;89.20;;;;;;4813979;29;20054;-89
2021/09/27 13:14:20;;;;;;;9.45;5.18;;;21.00;89.70;;;;;;4806155;29;20050;-89
2021/09/27 13:16:49;;;;;;;8.88;5.00;;;21.00;90.00;;;;;;4818253;29;20057;-90
2021/09/27 13:19:43;;;;;;;9.15;5.05;;;21.00;90.00;;;;;;4808767;29;20070;-90
2021/09/27 13:22:27;;;;;;;8.70;5.00;;;21.00;88.70;;;;;;4792983;29;20079;-89
2021/09/27 13:25:01;;;;;;;8.88;4.55;;;21.00;88.50;;;;;;4800332;29;20069;-91
2021/09/27 13:27:34;;;;;;;8.18;5.07;;;21.00;89.00;;;;;;4800098;29;20043;-88
2021/09/27 13:30:28;;;;;;;7.82;5.20;;;21.00;89.20;;;;;;4802939;29;20080;-87
2021/09/27 13:32:56;;;;;;;8.98;5.30;;;21.00;88.50;;;;;;4797118;29;20054;-87
2021/09/27 13:35:24;;;;;;;8.63;4.88;;;21.00;89.90;;;;;;4794643;29;20047;-90
2021/09/27 13:38:03;;;;;;;10.98;4.90;;;21.00;90.00;;;;;;4805549;29;20172;-87
2021/09/27 13:40:35;;;;;;;10.27;4.45;;;21.00;89.70;;;;;;4796101;29;20137;-89
2021/09/27 13:43:15;;;;;;;10.73;4.60;;;21.00;89.20;;;;;;4793616;29;20051;-90
2021/09/27 13:46:03;;;;;;;9.50;4.93;;;21.00;89.00;;;;;;4834920;24;20085;-89
2021/09/27 13:48:36;;;;;;;8.38;5.15;;;21.00;89.90;;;;;;4834947;29;20060;-91
2021/09/27 13:51:11;;;;;;;9.27;4.70;;;21.00;90.30;;;;;;4828828;29;20442;-90
2021/09/27 13:54:33;;;;;;;10.05;4.80;;;21.00;90.30;;;;;;4836426;24;20062;-88
2021/09/27 14:11:58;;;;;;;8.02;4.60;;;21.00;90.20;;;;;;4767856;30;20123;-91
2021/09/27 14:15:24;;;;;;;7.40;4.88;;;21.00;90.70;;;;;;4756255;30;20059;-90
2021/09/27 14:28:30;;;;;;;7.88;4.25;;;20.90;90.40;;;;;;4840672;24;20073;-88
2021/09/27 14:34:57;;;;;;;8.82;4.47;;;20.90;89.70;;;;;;4759945;30;20056;-88
2021/09/27 14:37:25;;;;;;;7.10;4.15;;;20.80;89.90;;;;;;4800142;29;20055;-88
2021/09/27 14:39:52;;;;;;;6.68;4.47;;;20.90;90.60;;;;;;4799923;29;20074;-87
2021/09/27 14:42:19;;;;;;;9.85;4.90;;;20.90;90.70;;;;;;4799875;29;20118;-87
2021/09/27 14:44:45;;;;;;;6.85;4.13;;;20.90;90.50;;;;;;4800106;29;20535;-87
2021/09/27 14:47:29;;;;;;;7.32;4.25;;;20.90;90.50;;;;;;4805193;29;20381;-87
2021/09/27 14:49:57;;;;;;;6.78;4.07;;;20.80;90.50;;;;;;4811168;24;20059;-89
2021/09/27 15:01:36;;;;;;;7.78;4.03;;;20.70;90.70;;;;;;4806672;29;20050;-90
2021/09/27 15:04:52;;;;;;;6.17;3.50;;;20.70;90.50;;;;;;4802978;29;20062;-84
2021/09/27 15:26:43;;;;;;;7.30;3.88;;;20.10;92.00;;;;;;4813760;24;20062;-82
2021/09/27 15:29:24;;;;;;;6.32;3.33;;;20.10;92.60;;;;;;4804214;29;20500;-83
2021/09/27 15:32:02;;;;;;;5.72;3.13;;;20.00;92.80;;;;;;4803486;29;20130;-83
2021/09/27 15:34:40;;;;;;;8.10;3.25;;;19.90;92.80;;;;;;4800741;29;20061;-86
2021/09/27 15:37:12;;;;;;;5.78;3.30;;;19.80;93.00;;;;;;4803465;29;20054;-86
2021/09/27 15:39:38;;;;;;;10.05;3.80;;;19.80;93.20;;;;;;4803355;29;20051;-82
2021/09/27 15:42:06;;;;;;;10.52;2.95;;;19.80;93.30;;;;;;4803228;29;20377;-80
2021/09/27 15:44:32;;;;;;;6.28;2.92;;;19.80;93.10;;;;;;4787180;29;20047;-79
2021/09/27 15:47:01;;;;;;;6.10;3.10;;;19.70;93.30;;;;;;4799142;29;20130;-82
2021/09/27 15:49:29;;;;;;;6.45;2.58;;;19.60;93.60;;;;;;4796755;29;20099;-81
2021/09/27 15:51:56;;;;;;;6.00;2.58;;;19.50;93.60;;;;;;4799074;29;20085;-82
2021/09/27 15:54:22;;;;;;;4.30;2.05;;;19.50;93.70;;;;;;4804930;29;20051;-81
2021/09/27 15:56:53;;;;;;;4.70;2.55;;;19.50;93.60;;;;;;4802229;29;20054;-81
2021/09/27 15:59:20;;;;;;;5.13;2.38;;;19.40;93.80;;;;;;4804718;29;20051;-80
2021/09/27 16:01:48;;;;;;;5.82;1.85;;;19.50;93.70;;;;;;4804791;29;20493;-81
2021/09/27 16:04:14;;;;;;;6.20;2.22;;;19.50;93.60;;;;;;4804307;29;20265;-81
2021/09/27 16:06:40;;;;;;;4.45;1.67;;;19.50;93.70;;;;;;4803575;29;20086;-82
2021/09/27 16:15:04;;;;;;;6.00;1.27;;;19.40;93.30;;;;;;4804036;29;20050;-83
2021/09/27 16:17:43;;;;;;;5.45;1.38;;;19.30;93.30;;;;;;4798608;29;20431;-82
2021/09/27 16:23:25;;;;;;;3.05;1.38;;;19.10;93.10;;;;;;4801214;29;20055;-84
2021/09/27 16:26:32;;;;;;;3.85;1.55;;;19.00;93.20;;;;;;4798598;29;20047;-83
2021/09/27 16:29:39;;;;;;;3.70;2.00;;;18.90;93.10;;;;;;4770430;29;20138;-83
2021/09/27 16:32:58;;;;;;;3.17;1.58;;;18.90;93.40;;;;;;4802585;29;20503;-83
2021/09/27 16:35:27;;;;;;;3.83;1.67;;;18.80;93.50;;;;;;4734900;29;20070;-84
2021/09/27 16:38:03;;;;;;;3.45;1.63;;;18.80;93.50;;;;;;4802721;29;20051;-84
2021/09/27 16:40:32;;;;;;;3.42;1.45;;;18.80;93.70;;;;;;4798981;29;20055;-84
2021/09/27 16:42:57;;;;;;;2.50;1.25;;;18.70;94.00;;;;;;4799345;29;20047;-84
2021/09/27 16:45:23;;;;;;;3.30;1.40;;;18.70;93.50;;;;;;4803229;29;20111;-84
2021/09/27 16:47:49;;;;;;;2.92;1.52;;;18.70;93.60;;;;;;4799856;29;20050;-85
2021/09/27 16:50:15;;;;;;;2.58;1.00;;;18.70;93.80;;;;;;4801870;29;20051;-85
2021/09/27 16:52:41;;;;;;;3.40;1.40;;;18.70;93.50;;;;;;4799801;29;20066;-84
2021/09/27 16:55:07;;;;;;;4.55;1.02;;;18.70;93.50;;;;;;4803628;29;20086;-84
2021/09/27 16:57:33;;;;;;;5.35;1.00;;;18.60;93.30;;;;;;4799440;29;20092;-84
2021/09/27 16:59:59;;;;;;;5.30;1.35;;;18.60;93.30;;;;;;4807070;29;20424;-83
2021/09/27 17:02:26;;;;;;;10.25;1.77;;;18.50;93.40;;;;;;4800709;29;20069;-84
2021/09/27 17:04:53;;;;;;;8.05;1.50;;;18.50;93.20;;;;;;4804898;29;20047;-83
2021/09/27 17:07:19;;;;;;;5.53;1.50;;;18.40;93.00;;;;;;4794118;29;20074;-83
2021/09/27 17:09:50;;;;;;;5.03;1.45;;;18.30;93.70;;;;;;4805760;29;20059;-85
2021/09/27 17:12:17;;;;;;;6.85;1.30;;;18.20;93.80;;;;;;4806694;29;20051;-84
2021/09/27 17:20:03;;;;;;;4.45;1.40;;;18.20;93.80;;;;;;4794326;29;20055;-83